<?xml version="1.0" encoding="UTF-8" standalone="no" ?>
<gpx xmlns="http://www.topografix.com/GPX/1/1" xmlns:xsi="http://www.w3.org/2001/XMLSchema-instance" xsi:schemaLocation="http://www.topografix.com/GPX/1/1 http://www.topografix.com/GPX/1/1/gpx.xsd" version="1.1" creator="VisuGPX - https://www.visugpx.com">
  <metadata>
    <name>2024-06-17-24-vezac castelnau</name>
    <desc><![CDATA[

]]></desc>
  </metadata>
  <trk>
    <name><![CDATA[Castelnaud]]></name>
    <desc><![CDATA[













]]></desc>
    <extensions>
      <line xmlns="http://www.topografix.com/GPX/gpx_style/0/2">
        <color>0000FF</color>
        <width>4</width>
      </line>
    </extensions>
    <trkseg>
      <trkpt lat="44.81334" lon="1.15305">
        <ele>67</ele>
        <time>2024-03-14T22:50:10Z</time>
      </trkpt>
      <trkpt lat="44.81311" lon="1.15242">
        <ele>68.1</ele>
      </trkpt>
      <trkpt lat="44.81345" lon="1.15208">
        <ele>69.3</ele>
        <time>2024-03-14T22:51:25Z</time>
      </trkpt>
      <trkpt lat="44.81385" lon="1.15136">
        <ele>71.1</ele>
      </trkpt>
      <trkpt lat="44.81442" lon="1.15177">
        <ele>64.3</ele>
        <time>2024-03-14T22:53:07Z</time>
      </trkpt>
      <trkpt lat="44.81544" lon="1.15255">
        <ele>63</ele>
      </trkpt>
      <trkpt lat="44.81598" lon="1.15296">
        <ele>69.9</ele>
        <time>2024-03-14T22:58:02Z</time>
      </trkpt>
      <trkpt lat="44.81597" lon="1.15286">
        <ele>69.1</ele>
        <time>2024-03-14T22:58:15Z</time>
      </trkpt>
      <trkpt lat="44.81586" lon="1.15241">
        <ele>65.2</ele>
        <time>2024-03-14T22:58:40Z</time>
      </trkpt>
      <trkpt lat="44.81599" lon="1.15233">
        <ele>65.4</ele>
      </trkpt>
      <trkpt lat="44.81606" lon="1.15211">
        <ele>67</ele>
        <time>2024-03-14T22:59:31Z</time>
      </trkpt>
      <trkpt lat="44.81629" lon="1.15169">
        <ele>68</ele>
        <time>2024-03-14T23:00:22Z</time>
      </trkpt>
      <trkpt lat="44.81667" lon="1.15128">
        <ele>69</ele>
        <time>2024-03-14T23:01:26Z</time>
      </trkpt>
      <trkpt lat="44.81722" lon="1.15072">
        <ele>70</ele>
        <time>2024-03-14T23:02:57Z</time>
      </trkpt>
      <trkpt lat="44.81809" lon="1.15026">
        <ele>65.5</ele>
        <time>2024-03-14T23:05:06Z</time>
      </trkpt>
      <trkpt lat="44.81855" lon="1.15007">
        <ele>67</ele>
        <time>2024-03-14T23:06:10Z</time>
      </trkpt>
      <trkpt lat="44.81882" lon="1.14993">
        <ele>67</ele>
        <time>2024-03-14T23:06:48Z</time>
      </trkpt>
      <trkpt lat="44.81965" lon="1.14964">
        <ele>67</ele>
        <time>2024-03-14T23:08:42Z</time>
      </trkpt>
      <trkpt lat="44.82003" lon="1.14956">
        <ele>67</ele>
        <time>2024-03-14T23:09:34Z</time>
      </trkpt>
      <trkpt lat="44.82039" lon="1.14948">
        <ele>67</ele>
        <time>2024-03-14T23:10:23Z</time>
      </trkpt>
      <trkpt lat="44.82059" lon="1.14944">
        <ele>67</ele>
        <time>2024-03-14T23:10:50Z</time>
      </trkpt>
      <trkpt lat="44.82088" lon="1.14942">
        <ele>67</ele>
        <time>2024-03-14T23:11:29Z</time>
      </trkpt>
      <trkpt lat="44.82117" lon="1.14939">
        <ele>68</ele>
        <time>2024-03-14T23:12:08Z</time>
      </trkpt>
      <trkpt lat="44.82163" lon="1.14928">
        <ele>71</ele>
        <time>2024-03-14T23:13:10Z</time>
      </trkpt>
      <trkpt lat="44.82184" lon="1.1493">
        <ele>70</ele>
        <time>2024-03-14T23:13:38Z</time>
      </trkpt>
      <trkpt lat="44.82281" lon="1.14927">
        <ele>65</ele>
      </trkpt>
      <trkpt lat="44.82313" lon="1.14922">
        <ele>65.2</ele>
        <time>2024-03-14T23:16:37Z</time>
      </trkpt>
      <trkpt lat="44.82364" lon="1.14914">
        <ele>66</ele>
        <time>2024-03-14T23:17:40Z</time>
      </trkpt>
      <trkpt lat="44.82411" lon="1.14903">
        <ele>67</ele>
        <time>2024-03-14T23:18:44Z</time>
      </trkpt>
      <trkpt lat="44.82502" lon="1.14872">
        <ele>63.5</ele>
        <time>2024-03-14T23:19:47Z</time>
      </trkpt>
      <trkpt lat="44.82587" lon="1.1485">
        <ele>64.3</ele>
        <time>2024-03-14T23:22:47Z</time>
      </trkpt>
      <trkpt lat="44.82703" lon="1.14837">
        <ele>68</ele>
        <time>2024-03-14T23:25:20Z</time>
      </trkpt>
      <trkpt lat="44.82787" lon="1.14825">
        <ele>64.1</ele>
        <time>2024-03-14T23:27:15Z</time>
      </trkpt>
      <trkpt lat="44.82836" lon="1.14825">
        <ele>66</ele>
        <time>2024-03-14T23:28:19Z</time>
      </trkpt>
      <trkpt lat="44.82845" lon="1.14823">
        <ele>66</ele>
        <time>2024-03-14T23:28:31Z</time>
      </trkpt>
      <trkpt lat="44.82893" lon="1.14826">
        <ele>64.5</ele>
        <time>2024-03-14T23:29:49Z</time>
      </trkpt>
      <trkpt lat="44.82943" lon="1.14814">
        <ele>66</ele>
        <time>2024-03-14T23:30:53Z</time>
      </trkpt>
      <trkpt lat="44.8298" lon="1.14801">
        <ele>66</ele>
        <time>2024-03-14T23:31:44Z</time>
      </trkpt>
      <trkpt lat="44.83008" lon="1.14804">
        <ele>66</ele>
        <time>2024-03-14T23:32:22Z</time>
      </trkpt>
      <trkpt lat="44.83123" lon="1.14798">
        <ele>63.1</ele>
        <time>2024-03-14T23:34:56Z</time>
      </trkpt>
      <trkpt lat="44.83167" lon="1.14806">
        <ele>64</ele>
        <time>2024-03-14T23:35:51Z</time>
      </trkpt>
      <trkpt lat="44.83215" lon="1.14816">
        <ele>61.6</ele>
        <time>2024-03-14T23:36:58Z</time>
      </trkpt>
      <trkpt lat="44.83214" lon="1.14843">
        <ele>62.9</ele>
      </trkpt>
      <trkpt lat="44.83208" lon="1.14934">
        <ele>66.8</ele>
      </trkpt>
      <trkpt lat="44.83202" lon="1.15045">
        <ele>67</ele>
      </trkpt>
      <trkpt lat="44.83197" lon="1.15219">
        <ele>67</ele>
      </trkpt>
      <trkpt lat="44.83202" lon="1.15249">
        <ele>67</ele>
      </trkpt>
      <trkpt lat="44.8321" lon="1.15246">
        <ele>67</ele>
      </trkpt>
      <trkpt lat="44.8321" lon="1.15284">
        <ele>67.1</ele>
        <time>2024-03-14T23:37:47Z</time>
      </trkpt>
      <trkpt lat="44.83254" lon="1.15292">
        <ele>67</ele>
      </trkpt>
      <trkpt lat="44.83254" lon="1.15169">
        <ele>67.4</ele>
      </trkpt>
      <trkpt lat="44.83242" lon="1.15095">
        <ele>69.5</ele>
      </trkpt>
      <trkpt lat="44.83227" lon="1.14939">
        <ele>67.4</ele>
      </trkpt>
      <trkpt lat="44.83227" lon="1.1484">
        <ele>62.5</ele>
      </trkpt>
      <trkpt lat="44.83254" lon="1.14841">
        <ele>66</ele>
        <time>2024-03-14T23:38:13Z</time>
      </trkpt>
      <trkpt lat="44.83273" lon="1.14855">
        <ele>63.6</ele>
        <time>2024-03-14T23:38:36Z</time>
      </trkpt>
      <trkpt lat="44.83356" lon="1.1485">
        <ele>66</ele>
        <time>2024-03-14T23:40:31Z</time>
      </trkpt>
      <trkpt lat="44.835" lon="1.14839">
        <ele>67</ele>
        <time>2024-03-14T23:43:44Z</time>
      </trkpt>
      <trkpt lat="44.83629" lon="1.14823">
        <ele>63.5</ele>
      </trkpt>
      <trkpt lat="44.83746" lon="1.14793">
        <ele>66</ele>
        <time>2024-03-14T23:49:16Z</time>
      </trkpt>
      <trkpt lat="44.838" lon="1.14761">
        <ele>63.1</ele>
        <time>2024-03-14T23:50:35Z</time>
      </trkpt>
      <trkpt lat="44.83884" lon="1.14698">
        <ele>62.9</ele>
        <time>2024-03-14T23:52:37Z</time>
      </trkpt>
      <trkpt lat="44.83902" lon="1.14673">
        <ele>78</ele>
        <time>2024-03-14T23:53:17Z</time>
      </trkpt>
      <trkpt lat="44.83922" lon="1.14667">
        <ele>68.3</ele>
        <time>2024-03-14T23:53:50Z</time>
      </trkpt>
      <trkpt lat="44.83942" lon="1.14551">
        <ele>97</ele>
        <time>2024-03-14T23:55:32Z</time>
      </trkpt>
      <trkpt lat="44.83955" lon="1.1446">
        <ele>98</ele>
        <time>2024-03-14T23:57:01Z</time>
      </trkpt>
      <trkpt lat="44.83958" lon="1.14364">
        <ele>81.3</ele>
        <time>2024-03-14T23:58:51Z</time>
      </trkpt>
      <trkpt lat="44.8399" lon="1.14306">
        <ele>89.6</ele>
      </trkpt>
      <trkpt lat="44.84001" lon="1.14307">
        <ele>94.7</ele>
      </trkpt>
      <trkpt lat="44.84" lon="1.14318">
        <ele>97.6</ele>
        <time>2024-03-14T23:59:40Z</time>
      </trkpt>
      <trkpt lat="44.84028" lon="1.14335">
        <ele>99</ele>
        <time>2024-03-15T00:00:30Z</time>
      </trkpt>
      <trkpt lat="44.84057" lon="1.14366">
        <ele>116.1</ele>
        <time>2024-03-15T00:01:21Z</time>
      </trkpt>
      <trkpt lat="44.8405" lon="1.14404">
        <ele>131.1</ele>
        <time>2024-03-15T00:01:33Z</time>
      </trkpt>
      <trkpt lat="44.84073" lon="1.14414">
        <ele>129.4</ele>
        <time>2024-03-15T00:02:23Z</time>
      </trkpt>
      <trkpt lat="44.84091" lon="1.14471">
        <ele>138</ele>
        <time>2024-03-15T00:03:14Z</time>
      </trkpt>
      <trkpt lat="44.84082" lon="1.1452">
        <ele>144.9</ele>
        <time>2024-03-15T00:04:16Z</time>
      </trkpt>
      <trkpt lat="44.84068" lon="1.14534">
        <ele>151.1</ele>
        <time>2024-03-15T00:04:43Z</time>
      </trkpt>
      <trkpt lat="44.8406" lon="1.14571">
        <ele>143</ele>
        <time>2024-03-15T00:05:33Z</time>
      </trkpt>
      <trkpt lat="44.84044" lon="1.14619">
        <ele>139</ele>
        <time>2024-03-15T00:06:25Z</time>
      </trkpt>
      <trkpt lat="44.84041" lon="1.14645">
        <ele>139</ele>
        <time>2024-03-15T00:06:50Z</time>
      </trkpt>
      <trkpt lat="44.84045" lon="1.1467">
        <ele>140</ele>
        <time>2024-03-15T00:07:15Z</time>
      </trkpt>
      <trkpt lat="44.84063" lon="1.14697">
        <ele>157.3</ele>
        <time>2024-03-15T00:08:18Z</time>
      </trkpt>
      <trkpt lat="44.84043" lon="1.14779">
        <ele>145</ele>
        <time>2024-03-15T00:09:34Z</time>
      </trkpt>
      <trkpt lat="44.84045" lon="1.14803">
        <ele>161</ele>
        <time>2024-03-15T00:10:00Z</time>
      </trkpt>
      <trkpt lat="44.84045" lon="1.14834">
        <ele>151</ele>
        <time>2024-03-15T00:11:29Z</time>
      </trkpt>
      <trkpt lat="44.84036" lon="1.14855">
        <ele>143</ele>
        <time>2024-03-15T00:11:52Z</time>
      </trkpt>
      <trkpt lat="44.84041" lon="1.14889">
        <ele>145</ele>
        <time>2024-03-15T00:12:25Z</time>
      </trkpt>
      <trkpt lat="44.84045" lon="1.14915">
        <ele>146</ele>
        <time>2024-03-15T00:12:51Z</time>
      </trkpt>
      <trkpt lat="44.84054" lon="1.14947">
        <ele>149.3</ele>
      </trkpt>
      <trkpt lat="44.84055" lon="1.1497">
        <ele>147.2</ele>
        <time>2024-03-15T00:13:39Z</time>
      </trkpt>
      <trkpt lat="44.84062" lon="1.15044">
        <ele>138.4</ele>
        <time>2024-03-15T00:14:53Z</time>
      </trkpt>
      <trkpt lat="44.84072" lon="1.15065">
        <ele>143.1</ele>
        <time>2024-03-15T00:15:20Z</time>
      </trkpt>
      <trkpt lat="44.84073" lon="1.15092">
        <ele>140</ele>
        <time>2024-03-15T00:15:45Z</time>
      </trkpt>
      <trkpt lat="44.841" lon="1.15134">
        <ele>137.8</ele>
        <time>2024-03-15T00:16:37Z</time>
      </trkpt>
      <trkpt lat="44.84107" lon="1.15156">
        <ele>136.9</ele>
        <time>2024-03-15T00:17:03Z</time>
      </trkpt>
      <trkpt lat="44.841" lon="1.15184">
        <ele>134.8</ele>
        <time>2024-03-15T00:17:28Z</time>
      </trkpt>
      <trkpt lat="44.84093" lon="1.15212">
        <ele>132.2</ele>
      </trkpt>
      <trkpt lat="44.841" lon="1.1524">
        <ele>135</ele>
        <time>2024-03-15T00:18:17Z</time>
      </trkpt>
      <trkpt lat="44.84104" lon="1.15305">
        <ele>126</ele>
        <time>2024-03-15T00:19:20Z</time>
      </trkpt>
      <trkpt lat="44.84094" lon="1.15347">
        <ele>119.5</ele>
        <time>2024-03-15T00:20:10Z</time>
      </trkpt>
      <trkpt lat="44.84086" lon="1.15393">
        <ele>106.5</ele>
      </trkpt>
      <trkpt lat="44.84102" lon="1.15419">
        <ele>104.7</ele>
        <time>2024-03-15T00:21:11Z</time>
      </trkpt>
      <trkpt lat="44.84103" lon="1.15458">
        <ele>106.8</ele>
      </trkpt>
      <trkpt lat="44.84035" lon="1.15509">
        <ele>101.9</ele>
      </trkpt>
      <trkpt lat="44.83986" lon="1.15571">
        <ele>94.7</ele>
        <time>2024-03-15T00:25:10Z</time>
      </trkpt>
      <trkpt lat="44.83928" lon="1.15721">
        <ele>84.9</ele>
        <time>2024-03-15T00:27:56Z</time>
      </trkpt>
      <trkpt lat="44.83913" lon="1.15854">
        <ele>76</ele>
        <time>2024-03-15T00:29:24Z</time>
      </trkpt>
      <trkpt lat="44.83915" lon="1.15897">
        <ele>74.9</ele>
      </trkpt>
      <trkpt lat="44.83844" lon="1.1591">
        <ele>72.9</ele>
        <time>2024-03-15T00:31:43Z</time>
      </trkpt>
      <trkpt lat="44.83803" lon="1.15967">
        <ele>74</ele>
        <time>2024-03-15T00:33:11Z</time>
      </trkpt>
      <trkpt lat="44.83793" lon="1.16049">
        <ele>72.1</ele>
        <time>2024-03-15T00:34:15Z</time>
      </trkpt>
      <trkpt lat="44.83777" lon="1.1607">
        <ele>70.5</ele>
        <time>2024-03-15T00:35:19Z</time>
      </trkpt>
      <trkpt lat="44.83672" lon="1.16066">
        <ele>69.8</ele>
        <time>2024-03-15T00:36:47Z</time>
      </trkpt>
      <trkpt lat="44.83603" lon="1.16088">
        <ele>74.2</ele>
        <time>2024-03-15T00:38:40Z</time>
      </trkpt>
      <trkpt lat="44.83659" lon="1.16341">
        <ele>77</ele>
        <time>2024-03-15T00:45:10Z</time>
      </trkpt>
      <trkpt lat="44.83721" lon="1.16641">
        <ele>79.1</ele>
        <time>2024-03-14T19:55:52Z</time>
      </trkpt>
      <trkpt lat="44.83666" lon="1.16669">
        <ele>82.2</ele>
        <time>2024-03-14T19:56:57Z</time>
      </trkpt>
      <trkpt lat="44.83631" lon="1.16754">
        <ele>86.3</ele>
      </trkpt>
      <trkpt lat="44.83609" lon="1.16784">
        <ele>88</ele>
        <time>2024-03-14T20:01:05Z</time>
      </trkpt>
      <trkpt lat="44.83562" lon="1.1682">
        <ele>88.4</ele>
        <time>2024-03-14T20:02:18Z</time>
      </trkpt>
      <trkpt lat="44.83491" lon="1.16828">
        <ele>89.1</ele>
        <time>2024-03-14T20:03:49Z</time>
      </trkpt>
      <trkpt lat="44.83487" lon="1.16881">
        <ele>88.6</ele>
        <time>2024-03-14T20:04:03Z</time>
      </trkpt>
      <trkpt lat="44.83471" lon="1.17011">
        <ele>89</ele>
        <time>2024-03-14T20:06:49Z</time>
      </trkpt>
      <trkpt lat="44.83464" lon="1.17127">
        <ele>102</ele>
        <time>2024-03-14T20:08:40Z</time>
      </trkpt>
      <trkpt lat="44.83449" lon="1.17166">
        <ele>105.4</ele>
        <time>2024-03-14T20:09:18Z</time>
      </trkpt>
      <trkpt lat="44.83446" lon="1.17194">
        <ele>111</ele>
      </trkpt>
      <trkpt lat="44.83464" lon="1.17199">
        <ele>122</ele>
        <time>2024-03-14T20:10:10Z</time>
      </trkpt>
      <trkpt lat="44.83541" lon="1.17201">
        <ele>129</ele>
        <time>2024-03-14T20:11:53Z</time>
      </trkpt>
      <trkpt lat="44.83649" lon="1.17218">
        <ele>132.2</ele>
        <time>2024-03-14T20:14:26Z</time>
      </trkpt>
      <trkpt lat="44.83695" lon="1.17259">
        <ele>140.3</ele>
        <time>2024-03-14T20:15:16Z</time>
      </trkpt>
      <trkpt lat="44.83715" lon="1.17301">
        <ele>143.9</ele>
        <time>2024-03-14T20:16:07Z</time>
      </trkpt>
      <trkpt lat="44.83771" lon="1.1735">
        <ele>151.3</ele>
        <time>2024-03-14T20:16:58Z</time>
      </trkpt>
      <trkpt lat="44.838" lon="1.17333">
        <ele>154.9</ele>
      </trkpt>
      <trkpt lat="44.8385" lon="1.17327">
        <ele>159.9</ele>
        <time>2024-03-14T20:23:14Z</time>
      </trkpt>
      <trkpt lat="44.83875" lon="1.17362">
        <ele>163.1</ele>
        <time>2024-03-14T20:39:47Z</time>
      </trkpt>
      <trkpt lat="44.83844" lon="1.17431">
        <ele>169.4</ele>
        <time>2024-03-14T20:40:24Z</time>
      </trkpt>
      <trkpt lat="44.83814" lon="1.17543">
        <ele>178.2</ele>
      </trkpt>
      <trkpt lat="44.83823" lon="1.17658">
        <ele>190.6</ele>
        <time>2024-03-14T20:41:28Z</time>
      </trkpt>
      <trkpt lat="44.83813" lon="1.17774">
        <ele>202</ele>
        <time>2024-03-14T20:44:23Z</time>
      </trkpt>
      <trkpt lat="44.83772" lon="1.17781">
        <ele>204.1</ele>
        <time>2024-03-14T20:45:13Z</time>
      </trkpt>
      <trkpt lat="44.83721" lon="1.17808">
        <ele>201.5</ele>
      </trkpt>
      <trkpt lat="44.8368" lon="1.17848">
        <ele>195.9</ele>
        <time>2024-03-14T20:47:28Z</time>
      </trkpt>
      <trkpt lat="44.83663" lon="1.17853">
        <ele>194.9</ele>
        <time>2024-03-14T20:47:54Z</time>
      </trkpt>
      <trkpt lat="44.83615" lon="1.17915">
        <ele>181.5</ele>
        <time>2024-03-14T20:49:32Z</time>
      </trkpt>
      <trkpt lat="44.83595" lon="1.17907">
        <ele>175.5</ele>
        <time>2024-03-14T20:49:59Z</time>
      </trkpt>
      <trkpt lat="44.83586" lon="1.17881">
        <ele>171.5</ele>
      </trkpt>
      <trkpt lat="44.83484" lon="1.1795">
        <ele>144.1</ele>
      </trkpt>
      <trkpt lat="44.83474" lon="1.17949">
        <ele>140.8</ele>
        <time>2024-03-14T20:53:22Z</time>
      </trkpt>
      <trkpt lat="44.83471" lon="1.17904">
        <ele>137.8</ele>
      </trkpt>
      <trkpt lat="44.83465" lon="1.17886">
        <ele>135.3</ele>
      </trkpt>
      <trkpt lat="44.83456" lon="1.17902">
        <ele>132.5</ele>
        <time>2024-03-14T20:54:10Z</time>
      </trkpt>
      <trkpt lat="44.83431" lon="1.17916">
        <ele>126.6</ele>
        <time>2024-03-14T20:55:42Z</time>
      </trkpt>
      <trkpt lat="44.83393" lon="1.1799">
        <ele>131</ele>
        <time>2024-03-14T20:56:59Z</time>
      </trkpt>
      <trkpt lat="44.8332" lon="1.17968">
        <ele>128</ele>
        <time>2024-03-14T20:58:39Z</time>
      </trkpt>
      <trkpt lat="44.83283" lon="1.17982">
        <ele>108.6</ele>
        <time>2024-03-14T20:59:33Z</time>
      </trkpt>
      <trkpt lat="44.83203" lon="1.1803">
        <ele>100.9</ele>
        <time>2024-03-14T21:01:15Z</time>
      </trkpt>
      <trkpt lat="44.83214" lon="1.18122">
        <ele>114.5</ele>
      </trkpt>
      <trkpt lat="44.83237" lon="1.1821">
        <ele>124.6</ele>
        <time>2024-03-14T21:04:24Z</time>
      </trkpt>
      <trkpt lat="44.83266" lon="1.18255">
        <ele>130.5</ele>
        <time>2024-03-14T21:05:15Z</time>
      </trkpt>
      <trkpt lat="44.83259" lon="1.18274">
        <ele>131.8</ele>
        <time>2024-03-14T21:05:28Z</time>
      </trkpt>
      <trkpt lat="44.83182" lon="1.18183">
        <ele>137.4</ele>
      </trkpt>
      <trkpt lat="44.83155" lon="1.18138">
        <ele>141.4</ele>
        <time>2024-03-14T21:08:37Z</time>
      </trkpt>
      <trkpt lat="44.83154" lon="1.18096">
        <ele>138.3</ele>
      </trkpt>
      <trkpt lat="44.8315" lon="1.18081">
        <ele>137.8</ele>
        <time>2024-03-14T21:09:14Z</time>
      </trkpt>
      <trkpt lat="44.83134" lon="1.18062">
        <ele>137.5</ele>
        <time>2024-03-14T21:09:51Z</time>
      </trkpt>
      <trkpt lat="44.83047" lon="1.18063">
        <ele>133.5</ele>
      </trkpt>
      <trkpt lat="44.83022" lon="1.18079">
        <ele>135</ele>
        <time>2024-03-14T21:11:59Z</time>
      </trkpt>
      <trkpt lat="44.82939" lon="1.18081">
        <ele>138.4</ele>
        <time>2024-03-14T21:14:49Z</time>
      </trkpt>
      <trkpt lat="44.82896" lon="1.18064">
        <ele>137.1</ele>
      </trkpt>
      <trkpt lat="44.82854" lon="1.1804">
        <ele>132.8</ele>
        <time>2024-03-14T21:16:53Z</time>
      </trkpt>
      <trkpt lat="44.82821" lon="1.18027">
        <ele>127.6</ele>
        <time>2024-03-14T21:17:19Z</time>
      </trkpt>
      <trkpt lat="44.82809" lon="1.18029">
        <ele>127.6</ele>
      </trkpt>
      <trkpt lat="44.82803" lon="1.18036">
        <ele>127.1</ele>
        <time>2024-03-14T21:17:43Z</time>
      </trkpt>
      <trkpt lat="44.82787" lon="1.18067">
        <ele>120.9</ele>
        <time>2024-03-14T21:18:48Z</time>
      </trkpt>
      <trkpt lat="44.82769" lon="1.18112">
        <ele>118.8</ele>
        <time>2024-03-14T21:19:25Z</time>
      </trkpt>
      <trkpt lat="44.82732" lon="1.18012">
        <ele>92.2</ele>
        <time>2024-03-14T21:21:10Z</time>
      </trkpt>
      <trkpt lat="44.82706" lon="1.18016">
        <ele>85.6</ele>
        <time>2024-03-14T21:21:48Z</time>
      </trkpt>
      <trkpt lat="44.8268" lon="1.18068">
        <ele>97.3</ele>
        <time>2024-03-14T21:22:26Z</time>
      </trkpt>
      <trkpt lat="44.82654" lon="1.18046">
        <ele>68.7</ele>
        <time>2024-03-14T21:23:20Z</time>
      </trkpt>
      <trkpt lat="44.82636" lon="1.18103">
        <ele>69</ele>
        <time>2024-03-14T21:24:00Z</time>
      </trkpt>
      <trkpt lat="44.82599" lon="1.18202">
        <ele>67.8</ele>
        <time>2024-03-14T21:24:11Z</time>
      </trkpt>
      <trkpt lat="44.82571" lon="1.18273">
        <ele>70</ele>
      </trkpt>
      <trkpt lat="44.82563" lon="1.18265">
        <ele>67.1</ele>
      </trkpt>
      <trkpt lat="44.82492" lon="1.18322">
        <ele>65.9</ele>
      </trkpt>
      <trkpt lat="44.82439" lon="1.18348">
        <ele>65.8</ele>
      </trkpt>
      <trkpt lat="44.82497" lon="1.18445">
        <ele>68</ele>
        <time>2024-03-14T21:33:52Z</time>
      </trkpt>
      <trkpt lat="44.82497" lon="1.18478">
        <ele>68</ele>
      </trkpt>
      <trkpt lat="44.82489" lon="1.18563">
        <ele>69</ele>
      </trkpt>
      <trkpt lat="44.82453" lon="1.18646">
        <ele>69.6</ele>
      </trkpt>
      <trkpt lat="44.82455" lon="1.18674">
        <ele>71.1</ele>
      </trkpt>
      <trkpt lat="44.82435" lon="1.18696">
        <ele>70.4</ele>
      </trkpt>
      <trkpt lat="44.8239" lon="1.18798">
        <ele>74.3</ele>
      </trkpt>
      <trkpt lat="44.82308" lon="1.18901">
        <ele>76.9</ele>
        <time>2024-03-14T21:35:59Z</time>
      </trkpt>
      <trkpt lat="44.82341" lon="1.18914">
        <ele>79.3</ele>
      </trkpt>
      <trkpt lat="44.82386" lon="1.18923">
        <ele>83.9</ele>
      </trkpt>
      <trkpt lat="44.8242" lon="1.18955">
        <ele>90.6</ele>
      </trkpt>
      <trkpt lat="44.8244" lon="1.18933">
        <ele>90.5</ele>
      </trkpt>
      <trkpt lat="44.82447" lon="1.18886">
        <ele>90.5</ele>
      </trkpt>
      <trkpt lat="44.82539" lon="1.18646">
        <ele>109</ele>
      </trkpt>
      <trkpt lat="44.82553" lon="1.18603">
        <ele>109.9</ele>
      </trkpt>
      <trkpt lat="44.82561" lon="1.18562">
        <ele>115.7</ele>
      </trkpt>
      <trkpt lat="44.8257" lon="1.18489">
        <ele>116.3</ele>
      </trkpt>
      <trkpt lat="44.8258" lon="1.18439">
        <ele>106.9</ele>
      </trkpt>
      <trkpt lat="44.82585" lon="1.18385">
        <ele>102.6</ele>
        <time>2024-03-14T21:36:12Z</time>
      </trkpt>
      <trkpt lat="44.82605" lon="1.18323">
        <ele>98.8</ele>
      </trkpt>
      <trkpt lat="44.82618" lon="1.18276">
        <ele>101.9</ele>
      </trkpt>
      <trkpt lat="44.82613" lon="1.18271">
        <ele>88.7</ele>
      </trkpt>
      <trkpt lat="44.82595" lon="1.18304">
        <ele>83.8</ele>
      </trkpt>
      <trkpt lat="44.82582" lon="1.18342">
        <ele>85.7</ele>
      </trkpt>
      <trkpt lat="44.82523" lon="1.18513">
        <ele>74.9</ele>
      </trkpt>
      <trkpt lat="44.8254" lon="1.18449">
        <ele>77.8</ele>
      </trkpt>
      <trkpt lat="44.82573" lon="1.18365">
        <ele>85.8</ele>
      </trkpt>
      <trkpt lat="44.82597" lon="1.1829">
        <ele>82.8</ele>
      </trkpt>
      <trkpt lat="44.82623" lon="1.18255">
        <ele>94.3</ele>
      </trkpt>
      <trkpt lat="44.82642" lon="1.18202">
        <ele>97.5</ele>
      </trkpt>
      <trkpt lat="44.8265" lon="1.18133">
        <ele>91.2</ele>
        <time>2024-03-14T21:40:11Z</time>
      </trkpt>
      <trkpt lat="44.82669" lon="1.1808">
        <ele>81.9</ele>
      </trkpt>
      <trkpt lat="44.82709" lon="1.18008">
        <ele>83.9</ele>
      </trkpt>
      <trkpt lat="44.82718" lon="1.17985">
        <ele>82.8</ele>
        <time>2024-03-14T21:45:01Z</time>
      </trkpt>
      <trkpt lat="44.82718" lon="1.1789">
        <ele>72.4</ele>
        <time>2024-03-14T21:45:27Z</time>
      </trkpt>
      <trkpt lat="44.82721" lon="1.1778">
        <ele>79.4</ele>
        <time>2024-03-14T21:46:43Z</time>
      </trkpt>
      <trkpt lat="44.8271" lon="1.17729">
        <ele>89.3</ele>
        <time>2024-03-14T21:47:32Z</time>
      </trkpt>
      <trkpt lat="44.82701" lon="1.1769">
        <ele>103</ele>
        <time>2024-03-14T21:48:17Z</time>
      </trkpt>
      <trkpt lat="44.82695" lon="1.17677">
        <ele>102</ele>
        <time>2024-03-14T21:48:32Z</time>
      </trkpt>
      <trkpt lat="44.82684" lon="1.17666">
        <ele>108.3</ele>
      </trkpt>
      <trkpt lat="44.82676" lon="1.1765">
        <ele>100</ele>
        <time>2024-03-14T21:49:08Z</time>
      </trkpt>
      <trkpt lat="44.82671" lon="1.17625">
        <ele>108</ele>
        <time>2024-03-14T21:49:33Z</time>
      </trkpt>
      <trkpt lat="44.82661" lon="1.17601">
        <ele>113</ele>
        <time>2024-03-14T21:49:59Z</time>
      </trkpt>
      <trkpt lat="44.82636" lon="1.17582">
        <ele>76.8</ele>
        <time>2024-03-14T21:50:37Z</time>
      </trkpt>
      <trkpt lat="44.82622" lon="1.17571">
        <ele>73.7</ele>
        <time>2024-03-14T21:51:02Z</time>
      </trkpt>
      <trkpt lat="44.82607" lon="1.17545">
        <ele>73.5</ele>
        <time>2024-03-14T21:51:26Z</time>
      </trkpt>
      <trkpt lat="44.82602" lon="1.1755">
        <ele>93</ele>
        <time>2024-03-14T21:51:39Z</time>
      </trkpt>
      <trkpt lat="44.82594" lon="1.17543">
        <ele>90</ele>
        <time>2024-03-14T21:51:52Z</time>
      </trkpt>
      <trkpt lat="44.82546" lon="1.1748">
        <ele>69</ele>
      </trkpt>
      <trkpt lat="44.82534" lon="1.1747">
        <ele>67.9</ele>
        <time>2024-03-14T21:53:48Z</time>
      </trkpt>
      <trkpt lat="44.82507" lon="1.17411">
        <ele>65.7</ele>
        <time>2024-03-14T21:55:17Z</time>
      </trkpt>
      <trkpt lat="44.82483" lon="1.17344">
        <ele>66.3</ele>
        <time>2024-03-14T21:56:08Z</time>
      </trkpt>
      <trkpt lat="44.82454" lon="1.17306">
        <ele>75</ele>
        <time>2024-03-14T21:57:11Z</time>
      </trkpt>
      <trkpt lat="44.82432" lon="1.17253">
        <ele>65.9</ele>
        <time>2024-03-14T21:58:01Z</time>
      </trkpt>
      <trkpt lat="44.82396" lon="1.17239">
        <ele>70</ele>
        <time>2024-03-14T21:58:53Z</time>
      </trkpt>
      <trkpt lat="44.82372" lon="1.17228">
        <ele>64.4</ele>
        <time>2024-03-14T21:59:44Z</time>
      </trkpt>
      <trkpt lat="44.82337" lon="1.17173">
        <ele>63.9</ele>
        <time>2024-03-14T22:00:37Z</time>
      </trkpt>
      <trkpt lat="44.82318" lon="1.17138">
        <ele>71</ele>
        <time>2024-03-14T22:01:15Z</time>
      </trkpt>
      <trkpt lat="44.82269" lon="1.17057">
        <ele>72</ele>
        <time>2024-03-14T22:02:56Z</time>
      </trkpt>
      <trkpt lat="44.82259" lon="1.17036">
        <ele>72</ele>
        <time>2024-03-14T22:03:21Z</time>
      </trkpt>
      <trkpt lat="44.82277" lon="1.16955">
        <ele>67</ele>
        <time>2024-03-14T22:04:38Z</time>
      </trkpt>
      <trkpt lat="44.8226" lon="1.16926">
        <ele>67.4</ele>
        <time>2024-03-14T22:05:03Z</time>
      </trkpt>
      <trkpt lat="44.82179" lon="1.16847">
        <ele>66.9</ele>
        <time>2024-03-14T22:06:58Z</time>
      </trkpt>
      <trkpt lat="44.82163" lon="1.1681">
        <ele>68</ele>
        <time>2024-03-14T22:08:01Z</time>
      </trkpt>
      <trkpt lat="44.82132" lon="1.16763">
        <ele>66.9</ele>
      </trkpt>
      <trkpt lat="44.82115" lon="1.16718">
        <ele>68</ele>
        <time>2024-03-14T22:09:54Z</time>
      </trkpt>
      <trkpt lat="44.82104" lon="1.16707">
        <ele>67.6</ele>
        <time>2024-03-14T22:10:06Z</time>
      </trkpt>
      <trkpt lat="44.82029" lon="1.16647">
        <ele>65.8</ele>
        <time>2024-03-14T22:12:01Z</time>
      </trkpt>
      <trkpt lat="44.81988" lon="1.1658">
        <ele>66</ele>
        <time>2024-03-14T22:13:34Z</time>
      </trkpt>
      <trkpt lat="44.81967" lon="1.16565">
        <ele>65.9</ele>
        <time>2024-03-14T22:13:59Z</time>
      </trkpt>
      <trkpt lat="44.81946" lon="1.16503">
        <ele>66</ele>
        <time>2024-03-14T22:14:52Z</time>
      </trkpt>
      <trkpt lat="44.81921" lon="1.16442">
        <ele>66.1</ele>
        <time>2024-03-14T22:16:09Z</time>
      </trkpt>
      <trkpt lat="44.81837" lon="1.16318">
        <ele>68</ele>
        <time>2024-03-14T22:18:56Z</time>
      </trkpt>
      <trkpt lat="44.81781" lon="1.16335">
        <ele>65.1</ele>
        <time>2024-03-14T22:19:46Z</time>
      </trkpt>
      <trkpt lat="44.81731" lon="1.16296">
        <ele>65.5</ele>
        <time>2024-03-14T22:22:31Z</time>
      </trkpt>
      <trkpt lat="44.81635" lon="1.16189">
        <ele>66.7</ele>
        <time>2024-03-14T22:23:23Z</time>
      </trkpt>
      <trkpt lat="44.81545" lon="1.16039">
        <ele>65.9</ele>
        <time>2024-03-14T22:25:07Z</time>
      </trkpt>
      <trkpt lat="44.8152" lon="1.15852">
        <ele>65.2</ele>
        <time>2024-03-14T22:25:45Z</time>
      </trkpt>
      <trkpt lat="44.8153" lon="1.15663">
        <ele>65.2</ele>
        <time>2024-03-14T22:28:44Z</time>
      </trkpt>
      <trkpt lat="44.81649" lon="1.15764">
        <ele>66.7</ele>
        <time>2024-03-14T22:29:22Z</time>
      </trkpt>
      <trkpt lat="44.81654" lon="1.15745">
        <ele>66.6</ele>
        <time>2024-03-14T22:30:13Z</time>
      </trkpt>
      <trkpt lat="44.81526" lon="1.15616">
        <ele>64.8</ele>
        <time>2024-03-14T22:32:32Z</time>
      </trkpt>
      <trkpt lat="44.81514" lon="1.1547">
        <ele>64.5</ele>
        <time>2024-03-14T22:35:17Z</time>
      </trkpt>
      <trkpt lat="44.81541" lon="1.15365">
        <ele>64.8</ele>
      </trkpt>
      <trkpt lat="44.81566" lon="1.15302">
        <ele>66.4</ele>
      </trkpt>
      <trkpt lat="44.81562" lon="1.15285">
        <ele>65</ele>
      </trkpt>
      <trkpt lat="44.81582" lon="1.1525">
        <ele>65.9</ele>
      </trkpt>
      <trkpt lat="44.81596" lon="1.15294">
        <ele>69.7</ele>
        <time>2024-03-14T22:40:22Z</time>
      </trkpt>
      <trkpt lat="44.81591" lon="1.15301">
        <ele>69.7</ele>
      </trkpt>
      <trkpt lat="44.81506" lon="1.15238">
        <ele>63</ele>
        <time>2024-03-14T22:44:26Z</time>
      </trkpt>
      <trkpt lat="44.81424" lon="1.15175">
        <ele>69.1</ele>
        <time>2024-03-14T22:45:44Z</time>
      </trkpt>
      <trkpt lat="44.81384" lon="1.15144">
        <ele>70.7</ele>
        <time>2024-03-14T22:47:39Z</time>
      </trkpt>
      <trkpt lat="44.81392" lon="1.15205">
        <ele>68.9</ele>
      </trkpt>
      <trkpt lat="44.81371" lon="1.1524">
        <ele>68.3</ele>
        <time>2024-03-14T22:49:57Z</time>
      </trkpt>
      <trkpt lat="44.81359" lon="1.15273">
        <ele>68.2</ele>
      </trkpt>
      <trkpt lat="44.81334" lon="1.15308">
        <ele>67</ele>
        <time>2024-03-14T22:50:10Z</time>
      </trkpt>
    </trkseg>
  </trk>
</gpx>